Time;durP1;ratioP1;P1;durP2;ratioP2;P2;SDS_P1;SDS_P2;PMS_P1;PMS_P2;Temp;Humidity;BMP_temperature;BMP_pressure;BME280_temperature;BME280_humidity;BME280_pressure;Samples;Min_cycle;Max_cycle;Signal;HPM_P1;HPM_P2
2022/05/25 00:00:06;;;;;;;2.03;1.60;;;;;;;-149.78;100.00;50209.38;5134157;27;20055;-71
2022/05/25 00:02:32;;;;;;;7.53;1.40;;;;;;;-149.78;100.00;50182.00;5134416;27;20035;-71
2022/05/25 00:04:57;;;;;;;3.42;1.63;;;;;;;-149.78;100.00;50207.44;5114920;27;20431;-71
2022/05/25 00:07:23;;;;;;;9.65;1.50;;;;;;;-149.78;100.00;50228.94;5115934;27;20038;-71
2022/05/25 00:09:49;;;;;;;2.65;1.40;;;;;;;-149.78;100.00;50201.56;5115685;27;20032;-71
2022/05/25 00:12:16;;;;;;;3.22;1.45;;;;;;;-149.78;100.00;50211.34;5134283;27;20377;-71
2022/05/25 00:14:42;;;;;;;3.15;1.40;;;;;;;-149.78;100.00;50203.50;5134248;27;20035;-71
2022/05/25 00:17:09;;;;;;;2.72;1.23;;;;;;;-149.78;100.00;50182.00;5116105;28;20027;-71
2022/05/25 00:22:19;;;;;;;2.65;1.45;;;;;;;-149.78;100.00;50176.13;5134230;28;20039;-71
2022/05/25 00:24:46;;;;;;;3.35;1.50;;;;;;;-149.78;100.00;50217.19;5116015;28;20366;-70
2022/05/25 00:27:11;;;;;;;2.53;1.33;;;;;;;-149.78;100.00;50201.56;5115894;28;20127;-70
2022/05/25 00:29:37;;;;;;;2.28;1.35;;;;;;;-149.78;100.00;50230.88;5115834;28;20042;-71
2022/05/25 00:32:07;;;;;;;2.05;1.35;;;;;;;-149.78;100.00;50238.72;5134220;28;20031;-71
2022/05/25 00:34:33;;;;;;;3.75;1.48;;;;;;;-149.78;100.00;50230.88;5115970;28;20412;-71
2022/05/25 00:36:59;;;;;;;2.47;1.23;;;;;;;-149.78;100.00;50228.94;5115831;28;20043;-71
2022/05/25 00:39:25;;;;;;;4.63;1.40;;;;;;;-149.78;100.00;50185.91;5134123;28;20033;-71
2022/05/25 00:41:51;;;;;;;3.30;1.48;;;;;;;-149.78;100.00;50209.38;5098829;28;20039;-71
2022/05/25 00:44:18;;;;;;;2.30;1.60;;;;;;;-149.78;100.00;50205.47;5134057;28;20035;-70
2022/05/25 00:46:44;;;;;;;2.63;1.38;;;;;;;-149.78;100.00;50189.81;5115698;28;20042;-71
2022/05/25 00:49:29;;;;;;;3.38;1.80;;;;;;;-149.78;100.00;50215.25;5098775;28;20039;-70
2022/05/25 00:51:56;;;;;;;4.03;1.67;;;;;;;-149.78;100.00;50240.66;5133974;28;20038;-71
2022/05/25 00:54:28;;;;;;;4.35;1.80;;;;;;;-149.78;100.00;50230.88;5133835;28;20113;-71
2022/05/25 00:56:56;;;;;;;5.40;2.00;;;;;;;-149.78;100.00;50162.44;5133691;28;20031;-70
2022/05/25 00:59:31;;;;;;;5.93;1.73;;;;;;;-149.78;100.00;50213.28;5133355;28;20043;-71
2022/05/25 01:01:57;;;;;;;4.63;1.58;;;;;;;-149.78;100.00;50201.56;5133782;28;20042;-70
2022/05/25 01:04:24;;;;;;;3.42;1.63;;;;;;;-149.78;100.00;50209.38;5098460;28;20402;-71
2022/05/25 01:07:12;;;;;;;3.15;1.90;;;;;;;-149.78;100.00;50201.56;5133551;28;20027;-71
2022/05/25 01:10:01;;;;;;;4.60;1.63;;;;;;;-149.78;100.00;50174.19;5112101;28;20030;-70
2022/05/25 01:12:38;;;;;;;2.72;1.77;;;;;;;-149.78;100.00;50215.25;5113285;28;20121;-71
2022/05/25 01:15:10;;;;;;;2.83;1.95;;;;;;;-149.78;100.00;50225.03;5095844;28;20114;-70
2022/05/25 01:18:15;;;;;;;6.88;1.63;;;;;;;-149.78;100.00;50213.28;5098776;28;20042;-71
2022/05/25 01:20:52;;;;;;;2.50;1.40;;;;;;;-149.78;100.00;50199.59;5075654;27;20394;-71
2022/05/25 01:23:43;;;;;;;3.03;1.63;;;;;;;-149.78;100.00;50197.66;5124427;27;20161;-71
2022/05/25 01:26:09;;;;;;;2.25;1.60;;;;;;;-149.78;100.00;50201.56;5112523;28;20119;-71
2022/05/25 01:29:05;;;;;;;2.63;1.65;;;;;;;-149.78;100.00;50217.19;5130225;27;20058;-71
2022/05/25 01:31:55;;;;;;;3.38;1.45;;;;;;;-149.78;100.00;50189.81;5132191;27;20420;-71
2022/05/25 01:34:46;;;;;;;4.57;1.60;;;;;;;-149.78;100.00;50213.28;5098593;28;20027;-71
2022/05/25 01:37:35;;;;;;;5.35;1.58;;;;;;;-149.78;100.00;50215.25;5090964;27;20507;-71
2022/05/25 01:40:21;;;;;;;4.47;1.60;;;;;;;-149.78;100.00;50182.00;5118966;27;20088;-71
2022/05/25 01:42:55;;;;;;;2.38;1.48;;;;;;;-149.78;100.00;50221.13;5101831;27;20027;-70
2022/05/25 01:45:24;;;;;;;2.15;1.60;;;;;;;-149.78;100.00;50201.56;5136576;27;20425;-70
2022/05/25 01:47:50;;;;;;;3.88;1.65;;;;;;;-149.78;100.00;50201.56;5137028;27;20488;-71
2022/05/25 01:50:47;;;;;;;3.25;1.52;;;;;;;-149.78;100.00;50203.50;5118769;27;20170;-70
2022/05/25 01:53:16;;;;;;;5.78;1.67;;;;;;;-149.78;100.00;50213.28;5136956;27;20382;-71
2022/05/25 01:55:48;;;;;;;3.75;1.75;;;;;;;-149.78;100.00;50228.94;5136882;27;20031;-71
2022/05/25 01:58:18;;;;;;;4.05;1.58;;;;;;;-149.78;100.00;50213.28;5136707;27;20031;-71
2022/05/25 02:00:57;;;;;;;4.50;1.55;;;;;;;-149.78;100.00;50189.81;5136567;27;20478;-71
2022/05/25 02:06:44;;;;;;;3.30;1.38;;;;;;;-149.78;100.00;50189.81;5118242;27;20482;-71
2022/05/25 02:09:31;;;;;;;4.20;1.40;;;;;;;-149.78;100.00;50197.66;5136638;27;20023;-70
2022/05/25 02:12:33;;;;;;;2.60;1.77;;;;;;;-149.78;100.00;50225.03;5136214;27;20030;-71
2022/05/25 02:15:08;;;;;;;1.35;1.20;;;;;;;-149.78;100.00;50197.66;5131804;27;20100;-71
2022/05/25 02:17:52;;;;;;;2.83;1.60;;;;;;;-149.78;100.00;50187.88;5117819;27;20069;-71
2022/05/25 02:20:45;;;;;;;5.30;1.50;;;;;;;-149.78;100.00;50209.38;5136361;27;20462;-71
2022/05/25 02:23:16;;;;;;;8.90;1.60;;;;;;;-149.78;100.00;50240.66;5136290;27;20054;-70
2022/05/25 02:25:58;;;;;;;6.22;1.60;;;;;;;-149.78;100.00;50185.91;5136321;27;20042;-71
2022/05/25 02:28:30;;;;;;;1.50;1.23;;;;;;;-149.78;100.00;50195.69;5135489;27;20031;-70
2022/05/25 02:30:58;;;;;;;4.37;1.40;;;;;;;-149.78;100.00;50178.09;5117829;27;20474;-70
2022/05/25 02:33:40;;;;;;;3.38;1.40;;;;;;;-149.78;100.00;50213.28;5136133;27;20427;-71
2022/05/25 02:36:09;;;;;;;2.35;1.40;;;;;;;-149.78;100.00;50205.47;5117808;27;20031;-70
2022/05/25 02:38:37;;;;;;;4.63;1.40;;;;;;;-149.78;100.00;50189.81;5136015;27;20035;-70
2022/05/25 02:41:06;;;;;;;4.80;1.50;;;;;;;-149.78;100.00;50185.91;5134099;27;20037;-71
2022/05/25 02:43:33;;;;;;;3.42;1.50;;;;;;;-149.78;100.00;50187.88;5124050;27;20072;-70
2022/05/25 02:45:59;;;;;;;1.92;1.60;;;;;;;-149.78;100.00;50189.81;5117435;27;20042;-70
2022/05/25 02:48:25;;;;;;;2.55;1.30;;;;;;;-149.78;100.00;50236.75;5117482;27;20031;-71
2022/05/25 02:50:51;;;;;;;4.07;1.45;;;;;;;-149.78;100.00;50240.66;5117658;27;20030;-71
2022/05/25 02:53:16;;;;;;;1.40;1.20;;;;;;;-149.78;100.00;50203.50;5130352;27;20378;-71
2022/05/25 02:55:42;;;;;;;3.13;1.42;;;;;;;-149.78;100.00;50221.13;5133350;27;20423;-71
2022/05/25 02:58:08;;;;;;;2.47;1.40;;;;;;;-149.78;100.00;50180.03;5135559;27;20027;-70
2022/05/25 03:00:33;;;;;;;3.33;1.67;;;;;;;-149.78;100.00;50183.97;5135301;27;20061;-70
2022/05/25 03:02:59;;;;;;;2.17;1.30;;;;;;;-149.78;100.00;50203.50;5100200;27;20091;-71
2022/05/25 03:05:25;;;;;;;4.32;1.85;;;;;;;-149.78;100.00;50189.81;5117364;27;20115;-70
2022/05/25 03:07:51;;;;;;;3.30;1.70;;;;;;;-149.78;100.00;50197.66;5117080;27;20035;-70
2022/05/25 03:10:16;;;;;;;4.32;1.48;;;;;;;-149.78;100.00;50209.38;5134345;27;20035;-71
2022/05/25 03:12:42;;;;;;;3.67;1.52;;;;;;;-149.78;100.00;50189.81;5117137;27;20028;-70
2022/05/25 03:15:09;;;;;;;4.10;1.90;;;;;;;-149.78;100.00;50176.13;5135445;27;20176;-70
2022/05/25 03:17:34;;;;;;;6.47;1.70;;;;;;;-149.78;100.00;50209.38;5116842;27;20031;-70
2022/05/25 03:20:00;;;;;;;3.25;1.42;;;;;;;-149.78;100.00;50189.81;5116971;27;20042;-70
2022/05/25 03:22:26;;;;;;;3.92;1.30;;;;;;;-149.78;100.00;50197.66;5135255;27;20035;-71
2022/05/25 03:24:52;;;;;;;2.95;1.50;;;;;;;-149.78;100.00;50219.16;5135178;27;20489;-71
2022/05/25 03:27:18;;;;;;;2.17;1.58;;;;;;;-149.78;100.00;50205.47;5135206;27;20032;-71
2022/05/25 03:29:44;;;;;;;2.45;1.60;;;;;;;-149.78;100.00;50225.03;5116451;27;20037;-70
2022/05/25 03:32:10;;;;;;;2.38;1.38;;;;;;;-149.78;100.00;50197.66;5134947;27;20102;-71
2022/05/25 03:34:35;;;;;;;5.18;2.00;;;;;;;-149.78;100.00;50205.47;5099764;27;20027;-71
2022/05/25 03:37:02;;;;;;;2.67;1.60;;;;;;;-149.78;100.00;50174.19;5134728;27;20402;-70
2022/05/25 03:39:28;;;;;;;7.70;2.58;;;;;;;-149.78;100.00;50213.28;5116353;27;20023;-71
2022/05/25 03:41:56;;;;;;;4.78;1.55;;;;;;;-149.78;100.00;50209.38;5116615;27;20035;-70
2022/05/25 03:44:23;;;;;;;3.13;1.40;;;;;;;-149.78;100.00;50236.75;5134820;27;20042;-70
2022/05/25 03:46:50;;;;;;;2.75;1.73;;;;;;;-149.78;100.00;50182.00;5126813;27;20039;-71
2022/05/25 03:49:16;;;;;;;2.35;1.83;;;;;;;-149.78;100.00;50197.66;5134334;27;20424;-71
2022/05/25 03:51:43;;;;;;;2.03;1.65;;;;;;;-149.78;100.00;50221.13;5134316;27;20492;-71
2022/05/25 03:54:10;;;;;;;2.88;1.60;;;;;;;-149.78;100.00;50189.81;5134352;27;20486;-70
2022/05/25 03:56:36;;;;;;;2.70;2.00;;;;;;;-149.78;100.00;50197.66;5134111;27;20046;-70
2022/05/25 03:59:02;;;;;;;8.85;1.80;;;;;;;-149.78;100.00;50197.66;5114049;27;20039;-70
2022/05/25 04:01:27;;;;;;;2.78;1.80;;;;;;;-149.78;100.00;50244.59;5133966;27;20126;-71
2022/05/25 04:03:53;;;;;;;4.18;1.70;;;;;;;-149.78;100.00;50178.09;5115928;27;20083;-70
2022/05/25 04:06:19;;;;;;;4.00;1.83;;;;;;;-149.78;100.00;50205.47;5116292;27;20035;-70
2022/05/25 04:08:44;;;;;;;2.42;1.70;;;;;;;-149.78;100.00;50240.66;5134219;27;20103;-70
2022/05/25 04:11:11;;;;;;;6.40;1.73;;;;;;;-149.78;100.00;50213.28;5134354;27;20041;-70
2022/05/25 04:13:37;;;;;;;5.13;2.55;;;;;;;-149.78;100.00;50211.34;5115958;27;20057;-70
2022/05/25 04:16:04;;;;;;;5.97;1.60;;;;;;;-149.78;100.00;50205.47;5134127;27;20039;-70
2022/05/25 04:18:30;;;;;;;3.80;1.88;;;;;;;-149.78;100.00;50201.56;5115929;28;20031;-70
2022/05/25 04:20:55;;;;;;;3.95;1.85;;;;;;;-149.78;100.00;50189.81;5134137;27;20390;-70
2022/05/25 04:23:24;;;;;;;3.28;2.03;;;;;;;-149.78;100.00;50199.59;5115957;28;20145;-70
2022/05/25 04:25:50;;;;;;;3.35;2.05;;;;;;;-149.78;100.00;50217.19;5134076;28;20076;-70
2022/05/25 04:28:18;;;;;;;4.20;1.80;;;;;;;-149.78;100.00;50207.44;5134015;28;20027;-70
2022/05/25 04:30:44;;;;;;;5.65;2.10;;;;;;;-149.78;100.00;50228.94;5134184;28;20162;-70
2022/05/25 04:33:09;;;;;;;5.45;2.03;;;;;;;-149.78;100.00;50185.91;5115983;28;20047;-70
2022/05/25 04:35:35;;;;;;;3.65;2.20;;;;;;;-149.78;100.00;50223.06;5099023;28;20449;-71
2022/05/25 04:38:03;;;;;;;4.82;2.28;;;;;;;-149.78;100.00;50228.94;5081991;28;20036;-70
2022/05/25 04:40:34;;;;;;;7.85;2.63;;;;;;;-149.78;100.00;50195.69;5134130;28;20073;-70
2022/05/25 04:43:03;;;;;;;3.42;2.10;;;;;;;-149.78;100.00;50221.13;5133911;28;20042;-71
2022/05/25 04:45:29;;;;;;;9.13;2.63;;;;;;;-149.78;100.00;50197.66;5134132;28;20474;-70
2022/05/25 04:47:58;;;;;;;6.07;2.90;;;;;;;-149.78;100.00;50166.34;5098917;28;20023;-70
2022/05/25 04:50:29;;;;;;;6.80;2.25;;;;;;;-149.78;100.00;50197.66;5135255;27;20027;-70
2022/05/25 04:52:59;;;;;;;6.07;2.80;;;;;;;-149.78;100.00;50234.81;5138016;27;20394;-70
2022/05/25 04:58:28;;;;;;;4.03;2.67;;;;;;;-149.78;100.00;50178.09;5105124;27;20035;-70
2022/05/25 05:00:54;;;;;;;7.07;2.60;;;;;;;-149.78;100.00;50174.19;5137841;27;20506;-70
2022/05/25 05:03:21;;;;;;;4.50;2.90;;;;;;;-149.78;100.00;50221.13;5137822;27;20039;-71
2022/05/25 05:05:47;;;;;;;4.07;2.45;;;;;;;-149.78;100.00;50240.66;5117587;27;20092;-71
2022/05/25 05:08:13;;;;;;;8.80;4.53;;;;;;;-149.78;100.00;50197.66;5109193;27;20027;-70
2022/05/25 05:10:39;;;;;;;4.38;2.63;;;;;;;-149.78;100.00;50182.00;5137433;27;20038;-70
2022/05/25 05:13:07;;;;;;;7.50;3.03;;;;;;;-149.78;100.00;50209.38;5102289;27;20027;-70
2022/05/25 05:15:34;;;;;;;6.97;2.92;;;;;;;-149.78;100.00;50211.34;5137199;27;20035;-70
2022/05/25 05:18:00;;;;;;;9.07;3.00;;;;;;;-149.78;100.00;50209.38;5118461;27;20462;-70
2022/05/25 05:20:26;;;;;;;5.13;2.67;;;;;;;-149.78;100.00;50232.84;5118638;27;20035;-71
2022/05/25 05:22:51;;;;;;;6.25;2.85;;;;;;;-149.78;100.00;50228.94;5101987;27;20042;-70
2022/05/25 05:25:17;;;;;;;11.73;3.08;;;;;;;-149.78;100.00;50189.81;5137470;27;20031;-71
2022/05/25 05:27:45;;;;;;;10.55;3.08;;;;;;;-149.78;100.00;50219.16;5137296;27;20039;-70
2022/05/25 05:30:14;;;;;;;6.55;2.90;;;;;;;-149.78;100.00;50197.66;5085255;27;20043;-71
2022/05/25 05:32:39;;;;;;;8.70;2.83;;;;;;;-149.78;100.00;50205.47;5137190;27;20038;-71
2022/05/25 05:35:06;;;;;;;8.70;3.13;;;;;;;-149.78;100.00;50236.75;5118896;27;20031;-71
2022/05/25 05:37:39;;;;;;;7.50;2.88;;;;;;;-149.78;100.00;50209.38;5137076;27;20031;-70
2022/05/25 05:40:08;;;;;;;9.73;3.15;;;;;;;-149.78;100.00;50225.03;5120166;27;20042;-71
2022/05/25 05:42:39;;;;;;;5.80;2.63;;;;;;;-149.78;100.00;50189.81;5116631;28;20129;-70
2022/05/25 05:45:21;;;;;;;7.20;2.95;;;;;;;-149.78;100.00;50221.13;5116508;27;20040;-71
2022/05/25 05:47:53;;;;;;;7.38;2.80;;;;;;;-149.78;100.00;50228.94;5124646;27;20019;-70
2022/05/25 05:50:22;;;;;;;5.97;2.60;;;;;;;-149.78;100.00;50228.94;5137026;27;20379;-71
2022/05/25 05:52:51;;;;;;;7.50;2.88;;;;;;;-149.78;100.00;50189.81;5112807;28;20028;-71
2022/05/25 05:55:17;;;;;;;6.03;2.45;;;;;;;-149.78;100.00;50209.38;5117904;27;20030;-71
2022/05/25 05:57:42;;;;;;;8.18;3.05;;;;;;;-149.78;100.00;50217.19;5126601;27;20340;-71
2022/05/25 06:00:10;;;;;;;7.60;2.72;;;;;;;-149.78;100.00;50189.81;5117683;27;20054;-71
2022/05/25 06:02:36;;;;;;;7.50;2.28;;;;;;;-149.78;100.00;50242.63;5135375;27;20032;-71
2022/05/25 06:05:02;;;;;;;7.88;2.92;;;;;;;-149.78;100.00;50187.88;5081832;27;20039;-71
2022/05/25 06:07:27;;;;;;;5.13;2.60;;;;;;;-149.78;100.00;50232.84;5101374;27;20031;-71
2022/05/25 06:09:55;;;;;;;6.38;2.97;;;;;;;-149.78;100.00;50152.66;5085402;27;20039;-71
2022/05/25 06:12:21;;;;;;;6.20;2.78;;;;;;;-149.78;100.00;50207.44;5118004;27;20051;-72
2022/05/25 06:14:47;;;;;;;9.13;2.50;;;;;;;-149.78;100.00;50170.25;5097504;28;20036;-71
2022/05/25 06:19:57;;;;;;;11.02;3.00;;;;;;;-149.78;100.00;50215.25;5118194;27;20096;-70
2022/05/25 06:22:23;;;;;;;4.13;2.38;;;;;;;-149.78;100.00;50182.00;5097470;28;20487;-69
2022/05/25 06:24:51;;;;;;;6.88;2.20;;;;;;;-149.78;100.00;50205.47;5115597;28;20036;-71
2022/05/25 06:27:19;;;;;;;7.40;2.13;;;;;;;-149.78;100.00;50189.81;5115669;28;20027;-69
2022/05/25 06:29:49;;;;;;;6.53;2.40;;;;;;;-149.78;100.00;50189.81;5097556;28;20069;-70
2022/05/25 06:32:18;;;;;;;9.30;2.17;;;;;;;-149.78;100.00;50209.38;5115644;28;20108;-69
2022/05/25 06:34:50;;;;;;;5.07;2.50;;;;;;;-149.78;100.00;50205.47;5115483;28;20039;-73
2022/05/25 06:37:19;;;;;;;7.18;2.42;;;;;;;-149.78;100.00;50182.00;5096733;27;20364;-71
2022/05/25 06:39:45;;;;;;;4.40;2.42;;;;;;;-149.78;100.00;50170.25;5128835;27;20031;-69
2022/05/25 06:42:10;;;;;;;3.78;1.80;;;;;;;-149.78;100.00;50201.56;5135960;27;20114;-70
2022/05/25 06:44:36;;;;;;;6.90;1.83;;;;;;;-149.78;100.00;50182.00;5117705;27;20171;-70
2022/05/25 06:47:03;;;;;;;5.18;1.90;;;;;;;-149.78;100.00;50158.53;5135575;27;20031;-69
2022/05/25 06:49:30;;;;;;;5.28;1.90;;;;;;;-149.78;100.00;50170.25;5104994;27;20106;-74
2022/05/25 06:51:55;;;;;;;5.30;1.60;;;;;;;-149.78;100.00;50140.94;5113994;28;20094;-72
2022/05/25 06:54:21;;;;;;;3.80;1.58;;;;;;;-149.78;100.00;50054.88;5080173;28;20058;-73
2022/05/25 06:56:46;;;;;;;6.43;1.73;;;;;;;-149.78;100.00;50072.50;5122272;27;20023;-74
2022/05/25 06:59:12;;;;;;;4.50;1.50;;;;;;;-149.78;100.00;50023.59;5125515;27;20523;-75
2022/05/25 07:01:41;;;;;;;4.70;1.48;;;;;;;-149.78;100.00;50011.88;5122481;27;20490;-73
2022/05/25 07:04:07;;;;;;;5.10;1.40;;;;;;;-149.78;100.00;50037.28;5115148;28;20032;-74
2022/05/25 07:06:38;;;;;;;4.57;1.70;;;;;;;-149.78;100.00;50041.19;5079827;28;20039;-73
2022/05/25 07:09:05;;;;;;;4.63;1.45;;;;;;;-149.78;100.00;49998.19;5132606;27;20064;-73
2022/05/25 07:11:31;;;;;;;2.78;1.30;;;;;;;-149.78;100.00;50064.66;5135664;27;20382;-72
2022/05/25 07:13:58;;;;;;;5.60;1.70;;;;;;;-149.78;100.00;50045.09;5116716;27;20035;-73
2022/05/25 07:16:24;;;;;;;4.47;1.40;;;;;;;-149.78;100.00;50041.19;5118240;27;20031;-73
2022/05/25 07:18:50;;;;;;;6.53;1.48;;;;;;;-149.78;100.00;50127.25;5106353;27;20375;-73
2022/05/25 07:21:19;;;;;;;3.67;1.60;;;;;;;-149.78;100.00;50095.94;5127388;27;20031;-73
2022/05/25 07:23:48;;;;;;;7.07;1.75;;;;;;;-149.78;100.00;50117.47;5120291;27;20074;-72
2022/05/25 07:26:15;;;;;;;4.85;1.45;;;;;;;-149.78;100.00;50119.41;5104568;28;20032;-72
2022/05/25 07:28:41;;;;;;;4.07;1.52;;;;;;;-149.78;100.00;50113.56;5123687;27;20030;-72
2022/05/25 07:31:28;;;;;;;2.53;1.40;;;;;;;-149.78;100.00;50099.88;5121700;27;20023;-73
2022/05/25 07:34:04;;;;;;;5.93;1.70;;;;;;;-149.78;100.00;50123.34;5096568;28;20048;-72
2022/05/25 07:36:31;;;;;;;8.43;1.50;;;;;;;-149.78;100.00;50158.53;5101921;27;20031;-72
2022/05/25 07:39:00;;;;;;;5.25;2.22;;;;;;;-149.78;100.00;50115.50;5134663;27;20023;-72
2022/05/25 07:41:28;;;;;;;4.38;1.75;;;;;;;-149.78;100.00;50138.97;5134351;27;20042;-72
2022/05/25 07:43:59;;;;;;;4.63;1.75;;;;;;;-149.78;100.00;50137.03;5134989;27;20031;-72
2022/05/25 07:46:27;;;;;;;4.95;1.38;;;;;;;-149.78;100.00;50092.03;5134850;27;20458;-72
2022/05/25 07:48:52;;;;;;;6.72;1.67;;;;;;;-149.78;100.00;50103.78;5134882;27;20038;-72
2022/05/25 07:51:19;;;;;;;3.08;1.38;;;;;;;-149.78;100.00;50064.66;5116248;27;20035;-71
2022/05/25 07:53:57;;;;;;;6.72;1.20;;;;;;;-149.78;100.00;50105.72;5134493;27;20031;-73
2022/05/25 07:56:32;;;;;;;2.25;1.08;;;;;;;-149.78;100.00;50056.84;5134595;27;20046;-72
2022/05/25 07:59:00;;;;;;;4.68;1.55;;;;;;;-149.78;100.00;50080.31;5134686;27;20041;-72
2022/05/25 08:07:02;;;;;;;4.70;1.45;;;;;;;-149.78;100.00;50138.97;5113986;28;20058;-72
2022/05/25 08:09:30;;;;;;;2.55;1.60;;;;;;;-149.78;100.00;50137.03;5095770;28;20421;-72
2022/05/25 08:11:56;;;;;;;3.67;1.50;;;;;;;-149.78;100.00;50090.09;5113913;28;20035;-71
2022/05/25 08:14:25;;;;;;;3.72;1.40;;;;;;;-149.78;100.00;50162.44;5114054;28;20159;-72
2022/05/25 08:16:51;;;;;;;4.30;1.50;;;;;;;-149.78;100.00;50137.03;5113824;28;20406;-73
2022/05/25 08:19:17;;;;;;;3.20;1.52;;;;;;;-149.78;100.00;50158.53;5095617;28;20348;-72
2022/05/25 08:21:43;;;;;;;5.40;1.85;;;;;;;-149.78;100.00;50101.81;5095537;28;20038;-71
2022/05/25 08:24:09;;;;;;;5.57;1.90;;;;;;;-149.78;100.00;50094.00;5112965;28;20036;-71
2022/05/25 08:26:37;;;;;;;6.38;2.13;;;;;;;-149.78;100.00;50107.69;5095378;28;20550;-72
2022/05/25 08:29:03;;;;;;;3.80;1.70;;;;;;;-149.78;100.00;50101.81;5113761;28;20118;-72
2022/05/25 08:31:28;;;;;;;9.27;1.98;;;;;;;-149.78;100.00;50060.75;5113727;28;20059;-73
2022/05/25 08:33:54;;;;;;;3.08;1.60;;;;;;;-149.78;100.00;50000.13;5113667;28;20050;-72
2022/05/25 08:36:20;;;;;;;5.63;1.50;;;;;;;-149.78;100.00;49990.34;5113580;28;20035;-72
2022/05/25 08:38:45;;;;;;;4.88;1.38;;;;;;;-149.78;95.29;49947.34;5078583;28;20039;-72
2022/05/25 08:41:11;;;;;;;3.15;1.08;;;;;;;-149.78;76.28;49908.22;5095326;28;20040;-73
2022/05/25 08:43:42;;;;;;;2.95;1.30;;;;;;;-149.78;66.93;49880.84;5113467;28;20066;-72
2022/05/25 08:46:14;;;;;;;2.50;1.10;;;;;;;-149.78;61.86;49884.75;5113517;28;20036;-74
2022/05/25 08:48:42;;;;;;;1.80;0.98;;;;;;;-149.78;59.08;49837.81;5095963;28;20386;-72
2022/05/25 08:51:12;;;;;;;1.52;0.90;;;;;;;-149.78;56.67;49863.25;5095421;28;20024;-73
2022/05/25 08:53:38;;;;;;;4.25;1.00;;;;;;;-149.78;58.51;49853.47;5113327;28;20023;-72
2022/05/25 08:56:26;;;;;;;1.38;0.90;;;;;;;-149.78;59.43;49865.19;5113105;28;20035;-72
2022/05/25 08:58:55;;;;;;;5.35;1.13;;;;;;;-149.78;61.77;49888.66;5113108;28;20032;-72
2022/05/25 09:02:00;;;;;;;4.38;1.23;;;;;;;-149.78;57.42;49865.19;5094499;28;20072;-73
2022/05/25 09:04:58;;;;;;;0.95;0.82;;;;;;;-149.78;59.79;49880.84;5112618;28;20155;-73
2022/05/25 09:07:42;;;;;;;1.38;0.80;;;;;;;-149.78;58.69;49925.81;5095256;28;20088;-72
2022/05/25 09:10:11;;;;;;;1.67;0.70;;;;;;;-149.78;56.46;49865.19;5094986;28;20115;-73
2022/05/25 09:12:52;;;;;;;2.38;0.80;;;;;;;-149.78;56.47;49853.47;5113320;28;20039;-72
2022/05/25 09:15:17;;;;;;;1.17;0.73;;;;;;;-149.78;55.21;49814.34;5113148;28;20107;-74
2022/05/25 09:17:46;;;;;;;3.60;0.70;;;;;;;-149.78;60.44;49857.38;5094905;28;20110;-71
2022/05/25 09:20:16;;;;;;;3.15;1.20;;;;;;;-149.78;58.74;49876.94;5113276;28;20036;-71
2022/05/25 09:22:42;;;;;;;1.15;0.60;;;;;;;-149.78;61.97;49892.56;5078081;28;20478;-73
2022/05/25 09:25:12;;;;;;;2.92;0.65;;;;;;;-149.78;70.55;49925.81;5095026;28;20039;-73
2022/05/25 09:27:50;;;;;;;1.13;0.68;;;;;;;-149.78;76.37;49908.22;5094622;28;20063;-71
2022/05/25 09:30:16;;;;;;;1.65;0.70;;;;;;;-149.78;67.28;49912.13;5113208;28;20467;-71
2022/05/25 09:32:58;;;;;;;1.67;0.70;;;;;;;-149.78;73.90;49955.16;5094897;28;20036;-73
2022/05/25 09:35:32;;;;;;;0.77;0.60;;;;;;;-149.78;81.87;49970.78;5094889;28;20028;-73
2022/05/25 09:38:02;;;;;;;1.35;0.70;;;;;;;-149.78;83.62;49947.34;5116356;27;20035;-73
2022/05/25 09:40:45;;;;;;;1.60;0.93;;;;;;;-149.78;94.82;49966.88;5137239;27;20113;-73
2022/05/25 09:43:23;;;;;;;1.48;0.70;;;;;;;-149.78;95.88;49970.78;5137102;27;20158;-75
2022/05/25 09:45:53;;;;;;;1.35;0.70;;;;;;;-149.78;92.57;49970.78;5118491;27;20067;-72
2022/05/25 09:48:22;;;;;;;2.45;0.75;;;;;;;-149.78;97.28;49970.78;5136970;27;20042;-72
2022/05/25 09:50:54;;;;;;;0.80;0.60;;;;;;;-149.78;100.00;50002.09;5136910;27;20027;-72
2022/05/25 09:53:24;;;;;;;2.03;0.60;;;;;;;-149.78;100.00;50029.47;5118511;27;20023;-72
2022/05/25 09:55:53;;;;;;;4.00;1.00;;;;;;;-149.78;100.00;50039.25;5136612;27;20043;-73
2022/05/25 09:58:33;;;;;;;2.35;0.80;;;;;;;-149.78;100.00;50049.03;5136546;27;20352;-72
2022/05/25 10:01:04;;;;;;;4.85;1.23;;;;;;;-149.78;100.00;50060.75;5136703;27;20070;-72
2022/05/25 10:03:43;;;;;;;1.40;0.77;;;;;;;-149.78;100.00;50009.91;5136461;27;20035;-73
2022/05/25 10:06:44;;;;;;;3.35;0.75;;;;;;;-149.78;100.00;49982.53;5136578;27;20126;-73
2022/05/25 10:09:25;;;;;;;1.77;0.80;;;;;;;-149.78;100.00;50056.84;5136218;27;20027;-72
2022/05/25 10:11:59;;;;;;;4.13;0.90;;;;;;;-149.78;100.00;50049.03;5136440;27;20024;-72
2022/05/25 10:14:35;;;;;;;1.17;0.80;;;;;;;-149.78;100.00;50088.13;5118320;27;20033;-72
2022/05/25 10:17:27;;;;;;;0.80;0.80;;;;;;;-149.78;100.00;50107.69;5118146;27;20031;-72
2022/05/25 10:19:55;;;;;;;2.15;0.93;;;;;;;-149.78;100.00;50099.88;5118261;27;20096;-72
2022/05/25 10:22:41;;;;;;;2.67;0.90;;;;;;;-149.78;100.00;50133.09;5136427;27;20046;-72
2022/05/25 10:25:12;;;;;;;1.05;0.88;;;;;;;-149.78;100.00;50107.69;5136376;27;20030;-72
2022/05/25 10:27:42;;;;;;;1.48;0.90;;;;;;;-149.78;100.00;50123.34;5117982;27;20027;-73
2022/05/25 10:39:31;;;;;;;1.10;1.00;;;;;;;-149.78;100.00;50121.38;5129515;27;20138;-73
2022/05/25 10:42:18;;;;;;;0.63;0.63;;;;;;;-149.78;100.00;50103.78;5118246;27;20034;-71
2022/05/25 10:45:07;;;;;;;1.58;1.10;;;;;;;-149.78;100.00;50111.59;5135920;27;20430;-71
2022/05/25 10:47:57;;;;;;;2.40;0.80;;;;;;;-149.78;100.00;50107.69;5135235;27;20042;-74
2022/05/25 10:50:32;;;;;;;1.00;0.70;;;;;;;-149.78;100.00;50119.41;5135966;27;20027;-73
2022/05/25 10:53:16;;;;;;;1.85;0.70;;;;;;;-149.78;100.00;50107.69;5135767;27;20432;-73
2022/05/25 10:55:53;;;;;;;0.80;0.80;;;;;;;-149.78;100.00;50115.50;5135647;27;20027;-71
2022/05/25 10:58:45;;;;;;;0.68;0.60;;;;;;;-149.78;100.00;50088.13;5135713;27;20027;-71
2022/05/25 11:01:22;;;;;;;1.38;0.70;;;;;;;-149.78;100.00;50099.88;5135491;27;20043;-73
2022/05/25 11:03:52;;;;;;;3.15;0.80;;;;;;;-149.78;100.00;50119.41;5117381;27;20035;-73
2022/05/25 11:06:57;;;;;;;2.78;0.80;;;;;;;-149.78;100.00;50107.69;5100178;27;20030;-74
2022/05/25 11:09:33;;;;;;;1.05;0.80;;;;;;;-149.78;100.00;50113.56;5103588;28;20043;-73
2022/05/25 11:12:19;;;;;;;0.60;0.60;;;;;;;-149.78;100.00;50103.78;5096878;28;20106;-74
2022/05/25 11:14:52;;;;;;;2.97;0.60;;;;;;;-149.78;100.00;50103.78;5114690;28;20031;-73
2022/05/25 11:17:30;;;;;;;0.50;0.50;;;;;;;-149.78;100.00;50078.34;5114823;28;20032;-73
2022/05/25 11:20:17;;;;;;;0.50;0.50;;;;;;;-149.78;100.00;50052.94;5114576;28;20106;-73
2022/05/25 11:22:58;;;;;;;0.60;0.60;;;;;;;-149.78;100.00;50064.66;5096533;28;20051;-73
2022/05/25 11:25:27;;;;;;;0.77;0.60;;;;;;;-149.78;100.00;50056.84;5096523;28;20023;-71
2022/05/25 11:28:08;;;;;;;0.75;0.70;;;;;;;-149.78;100.00;50052.94;5114685;28;20082;-73
2022/05/25 11:30:55;;;;;;;0.85;0.60;;;;;;;-149.78;100.00;50068.56;5114656;28;20413;-73
2022/05/25 11:33:58;;;;;;;0.60;0.60;;;;;;;-149.78;100.00;50103.78;5096316;28;20032;-73
2022/05/25 11:37:06;;;;;;;0.65;0.60;;;;;;;-149.78;100.00;50049.03;5119250;27;20500;-73
2022/05/25 11:39:41;;;;;;;1.27;0.80;;;;;;;-149.78;100.00;50029.47;5134869;27;20134;-73
2022/05/25 11:42:13;;;;;;;0.70;0.70;;;;;;;-149.78;100.00;50013.81;5116477;27;20114;-73
2022/05/25 11:45:12;;;;;;;0.77;0.70;;;;;;;-149.78;100.00;50017.72;5134797;27;20031;-73
2022/05/25 11:48:16;;;;;;;2.40;0.65;;;;;;;-149.78;100.00;50035.34;5134751;27;20035;-73
2022/05/25 11:50:50;;;;;;;1.38;0.88;;;;;;;-149.78;100.00;50054.88;5134825;27;20023;-73
2022/05/25 11:53:31;;;;;;;0.65;0.60;;;;;;;-149.78;100.00;50009.91;5134698;27;20470;-73
2022/05/25 11:56:13;;;;;;;1.45;0.65;;;;;;;-149.78;100.00;50064.66;5134764;27;20459;-74